Briefing drone pour Albens

Rechercher une autre localisation

Conditions de vol :


Nous sommes le : Mardi 22 juin 2021
Il est 22:55 UTC (00:55 LT)

Lever de soleil : 03:20 UTC (05:20 LT)
Coucher de soleil : 19:55 UTC (21:55 LT)

Météo

L'essentiel des conditions de vol

VIGILANCE MÉTÉO FRANCE - Savoie (73)
Vigilance Jaune : Orages
CARTE TEMSI
CARTES DES FRONTS
METAR de LFLB
LFLB 212230Z AUTO 12005KT 090V170 9999 VCTS BKN052/// BKN072/// BKN098/// ///CB 20/17 Q1010

Date d'émission: 21/06/2021
Heure d'émission: 22:30 UTC
Vent: 120° (variable du 090° au 170°) pour 5 KT (9 km/h)
Visibilité horizontale: > 10 km
Plafond :
- Nuages morcelés à 5200ft (1585m)
- Nuages morcelés à 7200ft (2195m)
- Nuages morcelés à 9800ft (2987m)
Température: 20 °C
Point de rosée: 17 °C
Humidité: 83%
Pression (QNH): 1010 hPa
TAF de LFLB
LFLB 211917Z 2119/2215 CNL

Conditions prévues :

Heure d'émission : Bulletin éffectué le 21 à 19:00 UTC
Prévision : Valide du 21 a 19:00 UTC au 22 a 15:00 UTC
Nuages : à 0ft (0 m)
WEBCAM POUR ALBENS

Réglementation

Voler en sécurité

CARTES AERONAUTIQUE 1/500.000
CARTES VAC (LFLB)
SUP AIP




Chargement des AIP...
NOTAM (ALBENS + Terrain à proximité / FIR )




Chargement des NOTAMS...
CONTACT PREFECTURE 73


Avertissement : Les données mises à disposition sont indicatives. Oxygène Drone ne pourra être tenu responsable de dégâts causés aux biens et aux personnes.